createdAt,value
2023-01-29T00:00:10.585Z,4.17
2023-01-29T00:02:42.539Z,3.20
2023-01-29T00:05:26.105Z,3.30
2023-01-29T00:07:56.963Z,2.17
2023-01-29T00:10:25.606Z,3.60
2023-01-29T00:12:53.054Z,3.30
2023-01-29T00:15:21.852Z,2.67
2023-01-29T00:17:50.848Z,3.67
2023-01-29T00:20:18.114Z,3.28
2023-01-29T00:22:44.947Z,2.58
2023-01-29T00:25:14.199Z,2.80
2023-01-29T00:27:40.809Z,2.45
2023-01-29T00:30:13.893Z,3.72
2023-01-29T00:32:40.922Z,1.98
2023-01-29T00:35:08.932Z,2.83
2023-01-29T00:37:35.767Z,2.33
2023-01-29T00:40:10.559Z,3.05
2023-01-29T00:42:56.250Z,3.00
2023-01-29T00:45:22.910Z,2.90
2023-01-29T00:47:54.215Z,2.72
2023-01-29T00:50:20.887Z,2.43
2023-01-29T00:52:49.736Z,2.67
2023-01-29T00:55:16.353Z,3.58
2023-01-29T00:57:43.124Z,2.40
2023-01-29T01:00:16.886Z,2.83
2023-01-29T01:03:02.172Z,2.50
2023-01-29T01:05:28.848Z,2.88
2023-01-29T01:07:57.980Z,2.72
2023-01-29T01:10:26.420Z,3.10
2023-01-29T01:13:02.626Z,3.63
2023-01-29T01:15:34.325Z,2.47
2023-01-29T01:18:01.944Z,2.70
2023-01-29T01:20:31.703Z,2.75
2023-01-29T01:23:00.794Z,2.70
2023-01-29T01:25:27.528Z,2.90
2023-01-29T01:27:56.092Z,2.60
2023-01-29T01:30:23.549Z,2.40
2023-01-29T01:32:55.414Z,2.67
2023-01-29T01:35:24.093Z,3.00
2023-01-29T01:37:53.015Z,2.95
2023-01-29T01:40:22.491Z,2.67
2023-01-29T01:42:57.989Z,2.50
2023-01-29T01:45:27.775Z,2.63
2023-01-29T01:48:06.607Z,2.40
2023-01-29T01:50:35.646Z,2.88
2023-01-29T01:53:09.149Z,2.63
2023-01-29T01:55:40.069Z,2.75
2023-01-29T01:58:18.530Z,2.80
2023-01-29T02:00:47.812Z,3.08
2023-01-29T02:03:37.604Z,2.47
2023-01-29T02:06:22.856Z,2.20
2023-01-29T02:09:10.886Z,3.15
2023-01-29T02:11:38.110Z,2.20
2023-01-29T02:14:04.733Z,3.58
2023-01-29T02:16:34.376Z,3.05
2023-01-29T02:19:01.428Z,3.07
2023-01-29T02:21:30.689Z,2.60
2023-01-29T02:24:43.902Z,2.63
2023-01-29T02:27:16.150Z,2.25
2023-01-29T02:29:47.939Z,3.25
2023-01-29T02:32:23.279Z,2.40
2023-01-29T02:35:27.353Z,2.42
2023-01-29T02:37:56.614Z,2.60
2023-01-29T02:40:37.032Z,2.15
2023-01-29T02:43:18.325Z,3.28
2023-01-29T02:45:47.846Z,3.33
2023-01-29T02:48:22.515Z,3.05
2023-01-29T02:51:06.900Z,3.08
2023-01-29T02:53:56.541Z,2.80
2023-01-29T02:56:32.131Z,2.75
2023-01-29T02:59:11.977Z,3.00
2023-01-29T03:02:01.167Z,3.28
2023-01-29T03:04:38.557Z,3.05
2023-01-29T03:07:10.766Z,2.45
2023-01-29T03:09:42.616Z,2.72
2023-01-29T03:12:33.645Z,1.67
2023-01-29T03:15:16.547Z,2.80
2023-01-29T03:17:55.172Z,2.45
2023-01-29T03:20:29.795Z,2.17
2023-01-29T03:23:02.724Z,2.80
2023-01-29T03:25:49.098Z,3.10
2023-01-29T03:28:36.337Z,2.78
2023-01-29T03:31:25.431Z,3.00
2023-01-29T03:34:08.110Z,2.88
2023-01-29T03:36:45.235Z,2.63
2023-01-29T03:39:15.769Z,2.57
2023-01-29T03:41:59.093Z,3.05
2023-01-29T03:44:37.265Z,3.60
2023-01-29T03:47:23.432Z,2.80
2023-01-29T03:49:59.031Z,2.50
2023-01-29T03:52:40.308Z,2.17
2023-01-29T03:55:36.140Z,2.35
2023-01-29T03:58:25.286Z,2.65
2023-01-29T04:03:45.783Z,2.10
2023-01-29T04:06:29.576Z,2.40
2023-01-29T04:08:59.788Z,1.95
2023-01-29T04:11:29.339Z,2.03
2023-01-29T04:13:57.871Z,2.40
2023-01-29T04:16:29.353Z,2.20
2023-01-29T04:18:56.721Z,1.97
2023-01-29T04:21:27.583Z,2.15
2023-01-29T04:23:56.462Z,1.98
2023-01-29T04:26:28.949Z,1.90
2023-01-29T04:29:33.748Z,1.98
2023-01-29T04:32:21.136Z,1.13
2023-01-29T04:34:59.721Z,1.73
2023-01-29T04:37:29.103Z,2.00
2023-01-29T04:40:17.805Z,2.40
2023-01-29T04:43:00.927Z,1.88
2023-01-29T04:45:36.541Z,2.20
2023-01-29T04:48:26.434Z,2.25
2023-01-29T04:50:58.872Z,1.83
2023-01-29T04:53:43.574Z,2.10
2023-01-29T04:56:36.122Z,2.67
2023-01-29T04:59:08.186Z,2.17
2023-01-29T05:01:41.144Z,2.90
2023-01-29T05:04:14.544Z,2.88
2023-01-29T05:06:42.666Z,2.35
2023-01-29T05:09:15.614Z,2.75
2023-01-29T05:11:43.351Z,2.90
2023-01-29T05:14:14.718Z,2.47
2023-01-29T05:16:51.646Z,2.58
2023-01-29T05:19:18.206Z,2.63
2023-01-29T05:21:49.986Z,2.85
2023-01-29T05:24:25.283Z,2.73
2023-01-29T05:27:13.378Z,2.83
2023-01-29T05:29:45.294Z,2.25
2023-01-29T05:32:15.280Z,2.47
2023-01-29T05:34:44.137Z,2.28
2023-01-29T05:37:11.148Z,3.30
2023-01-29T05:39:39.908Z,2.05
2023-01-29T05:42:08.739Z,2.38
2023-01-29T05:44:35.281Z,2.20
2023-01-29T05:47:02.813Z,2.65
2023-01-29T05:49:29.482Z,2.83
2023-01-29T05:51:58.327Z,2.75
2023-01-29T05:54:27.076Z,2.90
2023-01-29T05:56:53.598Z,3.33
2023-01-29T05:59:22.719Z,2.70
2023-01-29T06:01:49.295Z,3.37
2023-01-29T06:04:18.156Z,2.20
2023-01-29T06:06:44.695Z,2.83
2023-01-29T06:09:16.011Z,2.60
2023-01-29T06:11:42.543Z,2.70
2023-01-29T06:14:09.135Z,2.33
2023-01-29T06:16:35.761Z,2.35
2023-01-29T06:19:04.807Z,1.92
2023-01-29T06:21:31.468Z,2.00
2023-01-29T06:24:01.064Z,1.75
2023-01-29T06:26:29.839Z,1.97
2023-01-29T06:28:56.395Z,1.98
2023-01-29T06:31:42.990Z,2.13
2023-01-29T06:34:09.835Z,2.25
2023-01-29T06:36:41.880Z,2.90
2023-01-29T06:39:08.494Z,2.13
2023-01-29T06:41:35.144Z,2.70
2023-01-29T06:44:01.858Z,2.55
2023-01-29T06:46:30.806Z,2.20
2023-01-29T06:49:00.896Z,2.78
2023-01-29T06:51:27.475Z,2.23
2023-01-29T06:53:56.680Z,1.65
2023-01-29T06:56:25.543Z,2.95
2023-01-29T06:58:54.526Z,2.67
2023-01-29T07:01:36.869Z,2.72
2023-01-29T07:04:08.297Z,3.20
2023-01-29T07:06:34.856Z,3.15
2023-01-29T07:09:04.164Z,2.42
2023-01-29T07:11:30.783Z,2.92
2023-01-29T07:13:57.527Z,2.63
2023-01-29T07:16:25.103Z,2.70
2023-01-29T07:18:56.512Z,3.30
2023-01-29T07:21:30.419Z,2.38
2023-01-29T07:23:59.904Z,2.35
2023-01-29T07:26:26.643Z,2.40
2023-01-29T07:28:53.188Z,3.37
2023-01-29T07:31:20.040Z,2.67
2023-01-29T07:33:46.765Z,3.58
2023-01-29T07:36:15.860Z,3.00
2023-01-29T07:38:42.502Z,3.50
2023-01-29T07:41:12.330Z,2.30
2023-01-29T07:43:38.896Z,2.45
2023-01-29T07:46:11.039Z,2.15
2023-01-29T07:48:42.188Z,3.17
2023-01-29T07:51:11.182Z,3.13
2023-01-29T07:53:40.270Z,3.37
2023-01-29T07:56:07.090Z,3.10
2023-01-29T07:58:36.848Z,3.15
2023-01-29T08:01:10.184Z,2.88
2023-01-29T08:03:41.593Z,3.50
2023-01-29T08:06:10.584Z,2.40
2023-01-29T08:08:39.549Z,2.83
2023-01-29T08:11:08.610Z,3.13
2023-01-29T08:13:35.203Z,3.78
2023-01-29T08:16:04.693Z,3.00
2023-01-29T08:18:33.649Z,3.83
2023-01-29T08:21:01.781Z,3.50
2023-01-29T08:23:30.613Z,3.58
2023-01-29T08:26:00.176Z,3.60
2023-01-29T08:28:29.117Z,3.53
2023-01-29T08:30:55.876Z,3.37
2023-01-29T08:33:29.679Z,3.08
2023-01-29T08:36:04.597Z,3.85
2023-01-29T08:38:33.805Z,3.50
2023-01-29T08:41:00.345Z,3.55
2023-01-29T08:43:29.135Z,3.17
2023-01-29T08:45:57.978Z,3.53
2023-01-29T08:48:25.276Z,4.57
2023-01-29T08:50:51.973Z,3.72
2023-01-29T08:53:24.649Z,3.78
2023-01-29T08:55:53.455Z,3.67
2023-01-29T08:58:23.590Z,3.67
2023-01-29T09:00:51.294Z,4.13
2023-01-29T09:03:19.975Z,3.53
2023-01-29T09:05:46.876Z,4.22
2023-01-29T09:08:13.543Z,4.00
2023-01-29T09:10:42.338Z,3.90
2023-01-29T09:13:08.902Z,4.00
2023-01-29T09:15:37.755Z,3.45
2023-01-29T09:18:05.321Z,3.85
2023-01-29T09:20:34.165Z,3.47
2023-01-29T09:23:05.884Z,3.92
2023-01-29T09:25:32.584Z,3.33
2023-01-29T09:28:02.151Z,3.78
2023-01-29T09:30:32.071Z,3.50
2023-01-29T09:33:02.294Z,2.60
2023-01-29T09:35:28.860Z,3.13
2023-01-29T09:37:55.642Z,3.53
2023-01-29T09:40:40.955Z,3.20
2023-01-29T09:43:16.490Z,3.30
2023-01-29T09:45:54.125Z,3.43
2023-01-29T09:48:29.342Z,2.83
2023-01-29T09:50:59.948Z,2.88
2023-01-29T09:53:42.152Z,2.72
2023-01-29T09:56:28.762Z,3.00
2023-01-29T09:59:00.642Z,2.80
2023-01-29T10:01:54.166Z,2.85
2023-01-29T10:04:42.364Z,2.92
2023-01-29T10:07:11.821Z,2.33
2023-01-29T10:10:07.644Z,2.83
2023-01-29T10:12:48.800Z,2.47
2023-01-29T10:15:38.969Z,2.63
2023-01-29T10:18:07.812Z,2.30
2023-01-29T10:20:34.638Z,2.60
2023-01-29T10:23:13.037Z,2.83
2023-01-29T10:25:41.515Z,3.03
2023-01-29T10:28:26.605Z,2.58
2023-01-29T10:31:03.993Z,3.15
2023-01-29T10:34:01.448Z,2.70
2023-01-29T10:36:38.799Z,2.35
2023-01-29T10:39:05.477Z,2.60
2023-01-29T10:41:34.555Z,2.42
2023-01-29T10:44:03.330Z,2.75
2023-01-29T10:46:50.975Z,2.47
2023-01-29T10:49:41.678Z,2.20
2023-01-29T10:52:29.833Z,2.70
2023-01-29T10:55:15.223Z,3.08
2023-01-29T10:58:25.535Z,3.20
2023-01-29T11:00:54.625Z,2.30
2023-01-29T11:03:29.884Z,3.33
2023-01-29T11:06:05.752Z,2.70
2023-01-29T11:08:42.755Z,3.03
2023-01-29T11:11:18.838Z,3.03
2023-01-29T11:13:51.278Z,2.83
2023-01-29T11:16:18.061Z,3.10
2023-01-29T11:18:53.562Z,2.90
2023-01-29T11:21:20.809Z,2.63
2023-01-29T11:23:47.743Z,2.85
2023-01-29T11:26:22.288Z,3.08
2023-01-29T11:28:50.827Z,2.60
2023-01-29T11:31:38.629Z,3.00
2023-01-29T11:34:27.627Z,2.78
2023-01-29T11:36:58.621Z,2.58
2023-01-29T11:39:29.032Z,2.70
2023-01-29T11:41:57.935Z,3.25
2023-01-29T11:44:39.913Z,3.07
2023-01-29T11:47:21.267Z,2.33
2023-01-29T11:50:00.688Z,2.47
2023-01-29T11:52:41.036Z,2.75
2023-01-29T11:55:15.392Z,2.95
2023-01-29T11:57:47.264Z,2.57
2023-01-29T12:00:29.781Z,3.00
2023-01-29T12:03:31.825Z,2.80
2023-01-29T12:06:01.349Z,2.65
2023-01-29T12:08:35.235Z,2.53
2023-01-29T12:11:16.048Z,2.73
2023-01-29T12:13:45.753Z,2.67
2023-01-29T12:16:31.003Z,2.90
2023-01-29T12:19:14.347Z,3.40
2023-01-29T12:21:47.387Z,3.67
2023-01-29T12:24:19.940Z,3.10
2023-01-29T12:26:56.021Z,3.45
2023-01-29T12:29:40.000Z,2.92
2023-01-29T12:32:12.732Z,3.33
2023-01-29T12:34:53.388Z,3.65
2023-01-29T12:37:54.220Z,3.33
2023-01-29T12:40:26.954Z,3.15
2023-01-29T12:43:01.869Z,3.60
2023-01-29T12:45:30.807Z,3.03
2023-01-29T12:48:12.129Z,3.50
2023-01-29T12:50:39.013Z,3.00
2023-01-29T12:53:13.344Z,3.30
2023-01-29T12:55:45.221Z,3.42
2023-01-29T12:58:20.074Z,3.22
2023-01-29T13:00:54.267Z,3.75
2023-01-29T13:03:29.875Z,3.57
2023-01-29T13:06:03.333Z,2.88
2023-01-29T13:08:39.582Z,3.40
2023-01-29T13:11:35.526Z,3.80
2023-01-29T13:14:45.439Z,3.50
2023-01-29T13:17:37.590Z,3.13
2023-01-29T13:20:21.603Z,3.38
2023-01-29T13:22:54.485Z,4.32
2023-01-29T13:25:21.488Z,3.60
2023-01-29T13:27:51.581Z,3.25
2023-01-29T13:30:28.411Z,3.67
2023-01-29T13:33:09.132Z,3.55
2023-01-29T13:35:43.024Z,3.20
2023-01-29T13:38:32.247Z,3.20
2023-01-29T13:41:05.218Z,4.00
2023-01-29T13:43:37.400Z,3.60
2023-01-29T13:46:22.299Z,3.20
2023-01-29T13:48:50.981Z,3.60
2023-01-29T13:51:22.773Z,3.28
2023-01-29T13:54:19.955Z,3.67
2023-01-29T13:56:59.371Z,3.50
2023-01-29T13:59:53.059Z,3.33
2023-01-29T14:02:23.441Z,3.42
2023-01-29T14:04:53.354Z,4.13
2023-01-29T14:07:40.984Z,3.70
2023-01-29T14:10:22.649Z,3.90
2023-01-29T14:12:52.042Z,3.50
2023-01-29T14:15:22.111Z,3.72
2023-01-29T14:18:00.043Z,3.63
2023-01-29T14:20:52.672Z,3.55
2023-01-29T14:23:36.155Z,3.57
2023-01-29T14:26:07.927Z,3.47
2023-01-29T14:28:35.352Z,3.97
2023-01-29T14:31:05.763Z,4.32
2023-01-29T14:33:36.769Z,3.92
2023-01-29T14:36:06.765Z,4.10
2023-01-29T14:38:36.359Z,3.75
2023-01-29T14:41:20.882Z,3.83
2023-01-29T14:43:49.696Z,3.78
2023-01-29T14:46:43.343Z,4.60
2023-01-29T14:49:12.993Z,3.60
2023-01-29T14:51:44.034Z,4.03
2023-01-29T14:54:40.772Z,4.10
2023-01-29T14:57:13.145Z,3.35
2023-01-29T14:59:57.972Z,3.75
2023-01-29T15:02:46.545Z,4.40
2023-01-29T15:05:28.880Z,4.00
2023-01-29T15:08:03.674Z,3.88
2023-01-29T15:10:41.346Z,3.92
2023-01-29T15:13:31.077Z,4.13
2023-01-29T15:16:04.596Z,4.27
2023-01-29T15:18:39.960Z,4.40
2023-01-29T15:21:18.027Z,3.85
2023-01-29T15:23:50.504Z,3.30
2023-01-29T15:26:26.958Z,4.47
2023-01-29T15:29:04.189Z,4.43
2023-01-29T15:31:31.943Z,4.43
2023-01-29T15:34:06.515Z,4.10
2023-01-29T15:36:37.315Z,4.90
2023-01-29T15:39:09.969Z,4.25
2023-01-29T15:41:36.559Z,4.23
2023-01-29T15:44:03.156Z,5.28
2023-01-29T15:46:38.741Z,4.25
2023-01-29T15:49:19.313Z,4.60
2023-01-29T15:51:48.472Z,4.57
2023-01-29T15:54:16.858Z,4.13
2023-01-29T15:56:53.314Z,4.25
2023-01-29T15:59:25.680Z,4.35
2023-01-29T16:01:53.249Z,5.10
2023-01-29T16:04:31.468Z,13.35
2023-01-29T16:07:04.306Z,7.37
2023-01-29T16:09:30.955Z,6.28
2023-01-29T16:11:58.955Z,7.38
2023-01-29T16:14:30.035Z,5.97
2023-01-29T16:16:56.783Z,5.35
2023-01-29T16:19:26.167Z,5.30
2023-01-29T16:22:02.013Z,5.32
2023-01-29T16:24:33.775Z,5.78
2023-01-29T16:27:08.230Z,5.15
2023-01-29T16:29:35.686Z,5.03
2023-01-29T16:32:06.252Z,4.60
2023-01-29T16:34:48.072Z,4.72
2023-01-29T16:37:30.410Z,4.50
2023-01-29T16:39:59.494Z,4.50
2023-01-29T16:42:30.563Z,4.30
2023-01-29T16:45:02.515Z,4.83
2023-01-29T16:47:33.014Z,5.03
2023-01-29T16:50:01.038Z,4.53
2023-01-29T16:52:32.022Z,4.35
2023-01-29T16:55:11.397Z,4.03
2023-01-29T16:57:40.305Z,4.20
2023-01-29T17:00:13.335Z,4.32
2023-01-29T17:02:40.353Z,4.45
2023-01-29T17:05:09.510Z,4.47
2023-01-29T17:07:39.410Z,4.95
2023-01-29T17:10:07.531Z,5.53
2023-01-29T17:12:34.932Z,4.80
2023-01-29T17:15:28.287Z,4.43
2023-01-29T17:17:54.866Z,5.35
2023-01-29T17:20:24.198Z,5.50
2023-01-29T17:22:55.334Z,4.40
2023-01-29T17:25:22.165Z,4.15
2023-01-29T17:27:51.782Z,4.95
2023-01-29T17:30:21.461Z,4.22
2023-01-29T17:32:50.518Z,4.82
2023-01-29T17:35:17.830Z,4.67
2023-01-29T17:37:44.734Z,4.40
2023-01-29T17:40:29.698Z,4.47
2023-01-29T17:42:56.241Z,4.05
2023-01-29T17:45:22.864Z,4.00
2023-01-29T17:47:56.418Z,4.37
2023-01-29T17:50:27.640Z,4.93
2023-01-29T17:52:57.245Z,4.38
2023-01-29T17:55:24.149Z,3.42
2023-01-29T17:57:53.028Z,4.05
2023-01-29T18:00:22.715Z,4.03
2023-01-29T18:02:49.429Z,4.05
2023-01-29T18:05:19.371Z,3.97
2023-01-29T18:07:47.792Z,3.92
2023-01-29T18:10:21.100Z,3.53
2023-01-29T18:12:49.862Z,4.10
2023-01-29T18:15:19.081Z,3.65
2023-01-29T18:17:48.564Z,4.25
2023-01-29T18:20:23.781Z,4.45
2023-01-29T18:22:50.559Z,4.00
2023-01-29T18:25:19.878Z,4.07
2023-01-29T18:27:46.631Z,4.28
2023-01-29T18:30:16.166Z,4.82
2023-01-29T18:32:42.786Z,4.65
2023-01-29T18:35:09.675Z,4.00
2023-01-29T18:37:38.620Z,4.03
2023-01-29T18:40:05.988Z,4.28
2023-01-29T18:42:33.450Z,4.28
2023-01-29T18:45:03.710Z,3.95
2023-01-29T18:47:32.809Z,4.30
2023-01-29T18:50:01.644Z,3.97
2023-01-29T18:52:28.182Z,4.22
2023-01-29T18:55:01.098Z,4.03
2023-01-29T18:58:34.231Z,4.22
2023-01-29T19:00:17.902Z,4.40
2023-01-29T19:02:45.368Z,4.67
2023-01-29T19:05:15.550Z,4.63
2023-01-29T19:07:42.297Z,4.97
2023-01-29T19:10:12.719Z,5.78
2023-01-29T19:12:42.704Z,5.18
2023-01-29T19:15:13.014Z,4.40
2023-01-29T19:17:41.673Z,4.15
2023-01-29T19:20:09.694Z,4.82
2023-01-29T19:22:41.705Z,4.60
2023-01-29T19:25:11.281Z,4.93
2023-01-29T19:27:37.930Z,4.67
2023-01-29T19:30:05.829Z,5.50
2023-01-29T19:32:34.979Z,5.30
2023-01-29T19:35:04.000Z,4.53
2023-01-29T19:37:33.007Z,4.85
2023-01-29T19:39:59.575Z,3.83
2023-01-29T19:42:28.413Z,5.03
2023-01-29T19:45:00.305Z,5.20
2023-01-29T19:47:26.895Z,6.05
2023-01-29T19:49:53.483Z,5.63
2023-01-29T19:52:50.164Z,5.17
2023-01-29T19:55:18.848Z,4.75
2023-01-29T19:57:48.986Z,5.43
2023-01-29T20:00:17.464Z,5.47
2023-01-29T20:02:44.141Z,6.47
2023-01-29T20:05:14.192Z,5.40
2023-01-29T20:07:42.384Z,5.68
2023-01-29T20:10:11.496Z,5.40
2023-01-29T20:12:38.429Z,5.57
2023-01-29T20:15:05.264Z,6.07
2023-01-29T20:17:34.274Z,5.27
2023-01-29T20:20:00.829Z,5.38
2023-01-29T20:22:29.300Z,5.47
2023-01-29T20:24:57.457Z,5.30
2023-01-29T20:27:27.438Z,5.43
2023-01-29T20:29:53.987Z,6.13
2023-01-29T20:32:20.602Z,5.85
2023-01-29T20:34:52.151Z,5.78
2023-01-29T20:37:19.585Z,5.22
2023-01-29T20:39:46.389Z,5.15
2023-01-29T20:42:13.033Z,5.10
2023-01-29T20:44:39.621Z,4.97
2023-01-29T20:47:06.250Z,5.20
2023-01-29T20:49:33.083Z,5.40
2023-01-29T20:51:59.783Z,5.60
2023-01-29T20:54:26.374Z,5.03
2023-01-29T20:56:55.508Z,4.80
2023-01-29T20:59:23.111Z,4.88
2023-01-29T21:01:49.727Z,6.30
2023-01-29T21:04:16.324Z,5.03
2023-01-29T21:06:45.105Z,5.10
2023-01-29T21:09:11.645Z,5.95
2023-01-29T21:11:38.150Z,4.95
2023-01-29T21:14:04.907Z,5.68
2023-01-29T21:16:31.531Z,5.25
2023-01-29T21:18:58.692Z,4.60
2023-01-29T21:21:27.774Z,5.43
2023-01-29T21:23:54.730Z,6.05
2023-01-29T21:26:27.055Z,5.80
2023-01-29T21:28:53.703Z,5.43
2023-01-29T21:31:22.728Z,6.53
2023-01-29T21:33:49.358Z,5.22
2023-01-29T21:36:16.026Z,6.20
2023-01-29T21:38:42.574Z,5.43
2023-01-29T21:41:12.611Z,5.57
2023-01-29T21:43:41.833Z,6.20
2023-01-29T21:46:12.086Z,6.10
2023-01-29T21:48:44.052Z,6.03
2023-01-29T21:51:10.598Z,5.57
2023-01-29T21:53:37.345Z,6.18
2023-01-29T21:56:05.717Z,6.33
2023-01-29T21:58:34.658Z,6.10
2023-01-29T22:01:35.876Z,7.22
2023-01-29T22:03:49.987Z,5.50
2023-01-29T22:06:16.616Z,5.30
2023-01-29T22:08:43.146Z,7.30
2023-01-29T22:11:09.875Z,6.70
2023-01-29T22:13:36.609Z,5.57
2023-01-29T22:16:03.286Z,6.75
2023-01-29T22:18:32.065Z,5.85
2023-01-29T22:20:59.563Z,5.97
2023-01-29T22:23:30.929Z,5.68
2023-01-29T22:26:08.999Z,6.18
2023-01-29T22:28:37.952Z,5.72
2023-01-29T22:31:12.432Z,6.13
2023-01-29T22:33:46.863Z,6.13
2023-01-29T22:36:16.511Z,6.00
2023-01-29T22:38:45.930Z,4.93
2023-01-29T22:41:13.519Z,6.78
2023-01-29T22:43:41.092Z,5.45
2023-01-29T22:46:08.522Z,5.40
2023-01-29T22:48:35.661Z,5.85
2023-01-29T22:51:11.403Z,6.53
2023-01-29T22:53:44.102Z,4.90
2023-01-29T22:56:13.688Z,5.35
2023-01-29T22:58:41.210Z,5.87
2023-01-29T23:01:13.139Z,5.40
2023-01-29T23:03:39.782Z,5.53
2023-01-29T23:06:09.354Z,6.10
2023-01-29T23:08:40.470Z,7.03
2023-01-29T23:11:14.836Z,5.37
2023-01-29T23:13:53.136Z,5.80
2023-01-29T23:16:26.798Z,6.22
2023-01-29T23:18:55.277Z,5.80
2023-01-29T23:21:25.164Z,6.25
2023-01-29T23:23:59.290Z,5.83
2023-01-29T23:26:44.388Z,6.25
2023-01-29T23:29:16.189Z,5.82
2023-01-29T23:31:42.849Z,6.03
2023-01-29T23:34:12.144Z,6.80
2023-01-29T23:36:44.177Z,5.33
2023-01-29T23:39:11.013Z,6.80
2023-01-29T23:41:39.737Z,6.53
2023-01-29T23:44:11.049Z,5.95
2023-01-29T23:46:40.505Z,6.15
2023-01-29T23:49:07.243Z,6.13
2023-01-29T23:51:39.017Z,6.88
2023-01-29T23:54:07.842Z,5.35
2023-01-29T23:56:34.391Z,6.40
2023-01-29T23:59:03.896Z,5.75
